Time;durP1;ratioP1;P1;durP2;ratioP2;P2;SDS_P1;SDS_P2;PMS_P1;PMS_P2;Temp;Humidity;BMP_temperature;BMP_pressure;BME280_temperature;BME280_humidity;BME280_pressure;Samples;Min_cycle;Max_cycle;Signal;HPM_P1;HPM_P2
2022/06/17 00:01:42;;;;;;;14.10;9.20;;;;;;;17.76;57.85;94222.41;5106376;28;20057;-89
2022/06/17 00:04:08;;;;;;;15.38;10.10;;;;;;;17.74;58.49;94206.59;5106394;28;20028;-89
2022/06/17 00:06:49;;;;;;;17.63;10.02;;;;;;;17.72;58.33;94205.38;5106214;28;20088;-89
2022/06/17 00:09:17;;;;;;;14.18;10.52;;;;;;;17.66;58.74;94212.94;5103948;28;20048;-89
2022/06/17 00:11:43;;;;;;;14.88;10.77;;;;;;;17.61;58.60;94203.22;5106103;28;20046;-89
2022/06/17 00:14:16;;;;;;;13.40;9.43;;;;;;;17.63;58.70;94205.56;5106139;28;20322;-89
2022/06/17 00:16:42;;;;;;;15.93;10.10;;;;;;;17.61;58.65;94208.59;5106159;28;20024;-89
2022/06/17 00:19:08;;;;;;;13.02;9.57;;;;;;;17.56;59.11;94200.78;5105996;28;20069;-89
2022/06/17 00:21:40;;;;;;;14.13;9.52;;;;;;;17.52;58.82;94205.28;5088030;28;20032;-89
2022/06/17 00:24:14;;;;;;;14.48;9.68;;;;;;;17.44;59.03;94212.44;5106009;28;20035;-88
2022/06/17 00:26:45;;;;;;;18.10;9.70;;;;;;;17.36;59.17;94215.28;5105790;28;20066;-89
2022/06/17 00:29:14;;;;;;;15.88;9.43;;;;;;;17.32;59.47;94234.09;5105728;28;20345;-88
2022/06/17 00:31:40;;;;;;;17.30;10.27;;;;;;;17.21;59.32;94230.31;5105718;28;20020;-88
2022/06/17 00:34:06;;;;;;;15.95;10.35;;;;;;;17.15;60.08;94226.31;5105689;28;20016;-88
2022/06/17 00:36:37;;;;;;;18.75;10.00;;;;;;;17.07;59.76;94216.50;5105405;28;20043;-89
2022/06/17 00:39:13;;;;;;;14.57;10.60;;;;;;;17.02;60.18;94226.38;5105607;28;20024;-89
2022/06/17 00:41:41;;;;;;;17.58;10.27;;;;;;;17.02;60.76;94221.00;5105635;28;20092;-90
2022/06/17 00:44:51;;;;;;;16.13;10.15;;;;;;;17.05;61.11;94216.81;5105603;28;20032;-90
2022/06/17 00:47:38;;;;;;;21.95;10.88;;;;;;;17.02;60.95;94210.22;5083623;28;20042;-89
2022/06/17 00:50:15;;;;;;;21.27;10.75;;;;;;;17.02;61.37;94212.91;5105015;28;20019;-88
2022/06/17 00:52:56;;;;;;;15.82;10.43;;;;;;;16.98;61.38;94212.03;5105183;28;20026;-88
2022/06/17 00:55:40;;;;;;;16.88;10.95;;;;;;;16.97;61.27;94215.84;5105143;28;20016;-88
2022/06/17 00:58:21;;;;;;;17.10;10.88;;;;;;;16.94;61.45;94215.78;5105311;28;20019;-89
2022/06/17 01:00:51;;;;;;;17.88;11.38;;;;;;;16.89;61.34;94202.56;5105149;28;20065;-87
2022/06/17 01:03:21;;;;;;;18.90;12.52;;;;;;;16.82;61.81;94197.78;5104204;28;20070;-89
2022/06/17 01:05:54;;;;;;;15.85;11.80;;;;;;;16.74;61.98;94199.44;5105146;28;20031;-89
2022/06/17 01:11:21;;;;;;;17.50;11.27;;;;;;;16.71;62.26;94202.03;5105061;28;20020;-88
2022/06/17 01:13:50;;;;;;;14.60;10.40;;;;;;;16.69;62.77;94201.59;5086646;28;20024;-88
2022/06/17 01:16:18;;;;;;;15.77;10.82;;;;;;;16.69;62.74;94210.47;5086965;28;20020;-89
2022/06/17 01:18:45;;;;;;;16.75;11.23;;;;;;;16.67;62.39;94209.22;5105169;28;20043;-89
2022/06/17 01:21:35;;;;;;;15.25;10.30;;;;;;;16.60;62.58;94201.75;5105012;28;20027;-89
2022/06/17 01:24:01;;;;;;;14.77;9.95;;;;;;;16.57;63.14;94200.53;5104721;28;20027;-90
2022/06/17 01:26:27;;;;;;;15.23;10.55;;;;;;;16.59;63.18;94198.28;5086777;28;20019;-89
2022/06/17 01:28:53;;;;;;;15.40;10.25;;;;;;;16.60;63.67;94193.69;5104887;28;20016;-88
2022/06/17 01:31:18;;;;;;;14.77;10.85;;;;;;;16.64;63.76;94198.03;5104559;28;20065;-88
2022/06/17 01:33:44;;;;;;;17.17;11.48;;;;;;;16.63;63.55;94190.31;5104547;28;20012;-85
2022/06/17 01:36:29;;;;;;;17.23;11.10;;;;;;;16.60;64.02;94194.44;5103931;28;20032;-85
2022/06/17 01:38:59;;;;;;;16.83;10.60;;;;;;;16.59;64.20;94189.44;5086076;28;20020;-85
2022/06/17 01:41:27;;;;;;;18.55;11.85;;;;;;;16.54;63.94;94176.22;5104124;28;20023;-85
2022/06/17 01:43:55;;;;;;;21.73;11.60;;;;;;;16.52;63.99;94179.25;5103637;28;20312;-85
2022/06/17 01:46:26;;;;;;;15.52;11.05;;;;;;;16.51;64.05;94168.84;5104093;28;20046;-85
2022/06/17 01:48:57;;;;;;;17.88;11.65;;;;;;;16.47;64.20;94173.34;5104020;28;20061;-85
2022/06/17 01:51:26;;;;;;;19.60;10.73;;;;;;;16.48;64.27;94172.97;5104136;28;20023;-84
2022/06/17 01:53:56;;;;;;;17.98;11.23;;;;;;;16.47;64.49;94171.44;5103884;28;20031;-85
2022/06/17 01:56:27;;;;;;;20.88;11.10;;;;;;;16.47;64.60;94179.50;5103807;28;20027;-84
2022/06/17 01:59:05;;;;;;;21.52;11.52;;;;;;;16.47;64.60;94176.03;5103534;28;20040;-85
2022/06/17 02:01:34;;;;;;;15.65;11.75;;;;;;;16.44;64.85;94178.28;5103553;28;20020;-85
2022/06/17 02:04:08;;;;;;;22.80;11.52;;;;;;;16.42;64.92;94185.09;5103725;28;20123;-84
2022/06/17 02:06:48;;;;;;;17.35;11.60;;;;;;;16.39;65.01;94183.13;5103719;28;20024;-84
2022/06/17 02:09:14;;;;;;;17.15;11.52;;;;;;;16.37;65.31;94188.81;5085584;28;20028;-86
2022/06/17 02:11:40;;;;;;;22.20;11.50;;;;;;;16.31;65.21;94184.81;5103757;28;20038;-86
2022/06/17 02:14:09;;;;;;;15.98;11.30;;;;;;;16.31;65.49;94187.50;5103795;28;20016;-87
2022/06/17 02:16:45;;;;;;;17.00;12.20;;;;;;;16.27;64.95;94192.00;5103742;28;20341;-86
2022/06/17 02:19:11;;;;;;;18.10;11.73;;;;;;;16.18;64.92;94192.13;5103377;28;20020;-86
2022/06/17 02:22:10;;;;;;;19.33;12.35;;;;;;;16.15;64.91;94198.19;5103430;28;20276;-85
2022/06/17 02:24:38;;;;;;;17.77;11.80;;;;;;;16.15;64.58;94200.88;5102899;28;20043;-86
2022/06/17 02:27:08;;;;;;;16.33;11.85;;;;;;;16.14;64.72;94202.00;5103924;28;20318;-86
2022/06/17 02:29:36;;;;;;;19.85;11.45;;;;;;;16.08;65.06;94198.00;5103366;28;20314;-85
2022/06/17 02:32:05;;;;;;;18.70;11.77;;;;;;;16.01;65.60;94195.06;5103235;28;20028;-86
2022/06/17 02:34:31;;;;;;;20.75;13.18;;;;;;;15.96;65.95;94196.09;5103082;28;20020;-86
2022/06/17 02:37:10;;;;;;;18.55;12.48;;;;;;;15.94;66.41;94186.81;5103346;28;20028;-86
2022/06/17 02:39:41;;;;;;;28.58;14.52;;;;;;;15.96;66.45;94189.94;5104040;28;20180;-89
2022/06/17 02:42:15;;;;;;;15.63;11.88;;;;;;;15.94;66.14;94187.59;5103698;28;20314;-90
2022/06/17 02:44:41;;;;;;;20.77;12.82;;;;;;;15.96;66.74;94187.25;5103481;28;20100;-89
2022/06/17 02:47:09;;;;;;;17.80;12.35;;;;;;;15.94;66.69;94186.81;5103741;28;20055;-88
2022/06/17 02:49:36;;;;;;;20.98;12.90;;;;;;;15.91;66.68;94187.47;5085549;28;20023;-89
2022/06/17 02:52:18;;;;;;;20.23;12.13;;;;;;;15.93;66.86;94183.31;5103338;28;20028;-88
2022/06/17 02:54:50;;;;;;;21.88;11.32;;;;;;;15.93;66.85;94198.69;5103383;28;20012;-88
2022/06/17 02:57:23;;;;;;;18.65;12.63;;;;;;;15.89;67.16;94195.09;5103198;28;20027;-87
2022/06/17 03:00:01;;;;;;;19.92;12.73;;;;;;;15.90;67.17;94200.13;5103000;28;20008;-87
2022/06/17 03:02:31;;;;;;;24.15;12.55;;;;;;;15.93;66.84;94201.38;5084947;28;20088;-88
2022/06/17 03:04:58;;;;;;;19.23;11.65;;;;;;;15.93;66.89;94195.97;5102829;28;20038;-88
2022/06/17 03:07:28;;;;;;;18.15;12.07;;;;;;;15.94;66.89;94208.31;5103329;28;20371;-89
2022/06/17 03:09:54;;;;;;;18.23;12.52;;;;;;;15.95;66.82;94205.28;5103399;28;20109;-89
2022/06/17 03:12:28;;;;;;;19.80;12.13;;;;;;;15.89;66.96;94195.09;5088781;28;20095;-89
2022/06/17 03:15:07;;;;;;;17.13;12.05;;;;;;;15.91;67.39;94182.09;5107169;28;20016;-88
2022/06/17 03:17:38;;;;;;;19.23;11.93;;;;;;;15.94;67.38;94192.19;5106759;28;20091;-87
2022/06/17 03:20:06;;;;;;;22.27;12.40;;;;;;;15.95;67.08;94201.81;5106964;28;20020;-90
2022/06/17 03:22:32;;;;;;;18.30;12.35;;;;;;;15.91;67.11;94187.47;5089049;28;20102;-88
2022/06/17 03:25:04;;;;;;;19.05;12.15;;;;;;;15.95;67.00;94201.81;5106784;28;20020;-89
2022/06/17 03:27:37;;;;;;;23.02;13.15;;;;;;;15.97;67.05;94204.94;5106760;28;20091;-89
2022/06/17 03:30:04;;;;;;;16.38;12.27;;;;;;;16.00;67.42;94212.34;5106708;28;20381;-88
2022/06/17 03:32:45;;;;;;;18.38;11.88;;;;;;;16.01;67.22;94195.06;5106491;28;20027;-87
2022/06/17 03:35:22;;;;;;;21.63;12.55;;;;;;;16.05;67.16;94194.06;5106563;28;20337;-86
2022/06/17 03:38:00;;;;;;;17.35;12.13;;;;;;;16.16;66.82;94194.38;5106529;28;20024;-87
2022/06/17 03:40:44;;;;;;;19.58;11.82;;;;;;;16.17;66.87;94204.00;5106314;28;20371;-87
2022/06/17 03:43:13;;;;;;;18.75;12.35;;;;;;;16.15;67.23;94208.94;5106478;28;20088;-87
2022/06/17 03:45:48;;;;;;;17.88;12.75;;;;;;;16.21;67.51;94212.97;5106241;28;20124;-87
2022/06/17 03:48:42;;;;;;;22.23;12.32;;;;;;;16.28;67.37;94206.22;5106255;28;20030;-87
2022/06/17 03:51:17;;;;;;;18.88;12.80;;;;;;;16.33;66.87;94219.44;5106132;28;20027;-87
2022/06/17 03:53:44;;;;;;;16.73;11.55;;;;;;;16.38;67.02;94216.50;5106173;28;20023;-87
2022/06/17 03:56:40;;;;;;;17.25;12.00;;;;;;;16.50;67.05;94223.75;5106103;28;20027;-88
2022/06/17 03:59:11;;;;;;;17.02;11.43;;;;;;;16.53;65.84;94223.88;5089744;28;20036;-88
2022/06/17 04:02:05;;;;;;;18.17;12.15;;;;;;;16.60;65.21;94226.75;5105948;28;20016;-87
2022/06/17 04:04:38;;;;;;;21.98;13.80;;;;;;;16.61;65.42;94232.94;5105630;28;20338;-90
2022/06/17 04:07:04;;;;;;;23.38;12.02;;;;;;;16.67;65.05;94233.44;5107195;28;20020;-90
2022/06/17 04:09:32;;;;;;;21.73;13.02;;;;;;;16.68;65.16;94235.81;5106881;28;20222;-90
2022/06/17 04:12:02;;;;;;;18.92;12.15;;;;;;;16.70;65.45;94235.47;5106573;28;20371;-89
2022/06/17 04:14:34;;;;;;;22.08;13.93;;;;;;;16.63;65.19;94234.16;5106262;28;20215;-88
2022/06/17 04:17:08;;;;;;;19.80;13.50;;;;;;;16.67;65.80;94239.63;5106045;28;20069;-88
2022/06/17 04:19:34;;;;;;;21.00;14.48;;;;;;;16.67;65.81;94236.13;5106309;28;20107;-89
2022/06/17 04:22:05;;;;;;;20.38;13.45;;;;;;;16.71;65.94;94245.09;5105542;28;20222;-85
2022/06/17 04:24:32;;;;;;;22.90;12.73;;;;;;;16.73;65.74;94242.84;5087714;28;20039;-86
2022/06/17 04:27:04;;;;;;;21.30;14.63;;;;;;;16.66;65.73;94243.44;5105494;28;20023;-86
2022/06/17 04:29:38;;;;;;;28.98;14.88;;;;;;;16.63;65.92;94249.53;5105767;28;20040;-87
2022/06/17 04:32:16;;;;;;;25.55;14.90;;;;;;;16.66;65.68;94238.06;5105804;28;20016;-88
2022/06/17 04:34:42;;;;;;;29.90;14.55;;;;;;;16.66;66.39;94246.13;5105391;28;20016;-88
2022/06/17 04:37:17;;;;;;;24.27;14.05;;;;;;;16.64;65.87;94246.47;5105854;28;20255;-89
2022/06/17 04:39:51;;;;;;;24.35;14.50;;;;;;;16.66;66.45;94243.44;5105912;28;20083;-89
2022/06/17 04:42:38;;;;;;;24.98;13.95;;;;;;;16.64;66.22;94233.00;5105913;28;20041;-89
2022/06/17 04:45:04;;;;;;;21.23;14.35;;;;;;;16.71;66.22;94235.13;5105266;28;20242;-86
2022/06/17 04:47:32;;;;;;;21.20;14.65;;;;;;;16.72;66.59;94241.28;5105023;28;20030;-85
2022/06/17 04:50:04;;;;;;;22.75;14.88;;;;;;;16.70;66.88;94238.94;5105290;28;20115;-89
2022/06/17 04:52:36;;;;;;;23.70;14.85;;;;;;;16.80;66.95;94232.28;5087102;28;20329;-89
2022/06/17 04:55:05;;;;;;;26.90;15.23;;;;;;;16.81;66.88;94241.94;5105663;28;20027;-89
2022/06/17 04:57:31;;;;;;;24.08;15.98;;;;;;;16.83;67.39;94242.38;5104989;28;20020;-88
2022/06/17 04:59:59;;;;;;;28.20;16.33;;;;;;;16.81;67.11;94241.94;5105378;28;20028;-91
2022/06/17 05:02:28;;;;;;;24.10;15.63;;;;;;;16.93;66.82;94241.13;5105570;28;20042;-89
2022/06/17 05:05:00;;;;;;;29.60;15.55;;;;;;;17.04;66.61;94237.59;5105165;28;20065;-90
2022/06/17 05:07:29;;;;;;;23.40;14.13;;;;;;;17.16;66.41;94234.06;5105626;28;20023;-90
2022/06/17 05:10:07;;;;;;;25.30;15.30;;;;;;;17.26;65.61;94240.84;5105420;28;20375;-91
2022/06/17 05:12:44;;;;;;;27.83;14.82;;;;;;;17.30;65.42;94243.63;5105411;28;20027;-91
2022/06/17 05:15:16;;;;;;;28.80;14.50;;;;;;;17.35;65.36;94246.84;5105688;28;20008;-91
2022/06/17 05:17:42;;;;;;;20.45;13.23;;;;;;;17.42;64.90;94241.66;5087788;28;20341;-92
2022/06/17 05:20:12;;;;;;;27.85;13.43;;;;;;;17.47;64.31;94242.53;5105499;28;20024;-92
2022/06/17 05:22:47;;;;;;;27.23;13.25;;;;;;;17.53;64.45;94241.13;5106019;28;20019;-91
2022/06/17 05:25:17;;;;;;;22.00;13.07;;;;;;;17.62;63.42;94236.34;5104468;28;20040;-78
2022/06/17 05:27:42;;;;;;;20.33;12.45;;;;;;;17.70;62.47;94235.38;5104155;28;20034;-77
2022/06/17 05:30:08;;;;;;;17.67;11.38;;;;;;;17.75;61.37;94245.91;5104328;28;20028;-77
2022/06/17 05:32:34;;;;;;;25.10;11.70;;;;;;;17.79;61.03;94241.38;5104069;28;20027;-76
2022/06/17 05:35:03;;;;;;;20.67;13.05;;;;;;;17.89;61.50;94236.59;5103486;28;20020;-91
2022/06/17 05:37:28;;;;;;;20.67;13.38;;;;;;;17.99;61.35;94244.16;5086150;28;20028;-83
2022/06/17 05:39:54;;;;;;;22.92;14.20;;;;;;;18.02;61.65;94233.47;5104046;28;20215;-82
2022/06/17 05:42:20;;;;;;;24.45;11.82;;;;;;;18.11;61.49;94238.66;5103939;28;20027;-81
2022/06/17 05:44:47;;;;;;;33.00;11.90;;;;;;;18.17;61.83;94221.06;5103958;28;20040;-83
2022/06/17 05:47:12;;;;;;;18.90;12.77;;;;;;;18.33;62.09;94222.94;5103911;28;20234;-82
2022/06/17 05:49:39;;;;;;;22.65;12.98;;;;;;;18.48;60.79;94219.44;5104123;28;20083;-81
2022/06/17 05:52:05;;;;;;;21.23;11.63;;;;;;;18.59;60.04;94219.63;5103882;28;20083;-85
2022/06/17 05:54:30;;;;;;;20.80;10.68;;;;;;;18.72;60.13;94220.28;5103734;28;20016;-86
2022/06/17 05:56:56;;;;;;;24.52;10.77;;;;;;;18.88;58.88;94223.69;5103884;28;20020;-86
2022/06/17 05:59:22;;;;;;;18.85;10.85;;;;;;;18.99;58.43;94213.91;5085607;28;20020;-88
2022/06/17 06:01:47;;;;;;;23.00;9.63;;;;;;;19.14;57.66;94224.97;5103684;28;20016;-87
2022/06/17 06:04:13;;;;;;;18.90;8.50;;;;;;;19.25;57.02;94223.22;5103440;28;20230;-87
2022/06/17 06:06:38;;;;;;;17.17;9.00;;;;;;;19.37;55.19;94217.63;5085486;28;20015;-87
2022/06/17 06:09:04;;;;;;;12.30;7.93;;;;;;;19.31;55.83;94219.09;5104114;28;20035;-88
2022/06/17 06:11:30;;;;;;;12.32;8.38;;;;;;;19.32;55.11;94219.88;5085477;28;20020;-87
2022/06/17 06:13:55;;;;;;;17.10;8.55;;;;;;;19.30;55.12;94209.44;5103569;28;20019;-87
2022/06/17 06:16:20;;;;;;;12.70;8.18;;;;;;;19.28;55.66;94211.72;5103421;28;20090;-87
2022/06/17 06:18:47;;;;;;;14.20;8.32;;;;;;;19.32;55.40;94214.47;5085045;28;20020;-87
2022/06/17 06:21:13;;;;;;;12.23;7.35;;;;;;;19.38;55.43;94221.16;5103021;28;20062;-80
2022/06/17 06:23:41;;;;;;;19.08;8.00;;;;;;;19.30;55.57;94216.75;5103155;28;20195;-84
2022/06/17 06:26:08;;;;;;;15.43;6.72;;;;;;;19.40;55.42;94221.56;5104511;28;20349;-92
2022/06/17 06:28:34;;;;;;;15.55;7.43;;;;;;;19.41;55.63;94210.38;5103428;28;20027;-82
2022/06/17 06:31:07;;;;;;;15.98;6.97;;;;;;;19.44;55.86;94214.31;5103437;28;20028;-77
2022/06/17 06:33:33;;;;;;;15.00;6.70;;;;;;;19.60;56.23;94211.44;5103125;28;20016;-77
2022/06/17 06:35:59;;;;;;;11.02;7.10;;;;;;;19.77;55.21;94211.00;5103138;28;20271;-76
2022/06/17 06:38:25;;;;;;;11.25;6.22;;;;;;;19.95;54.53;94210.50;5102997;28;20023;-76
2022/06/17 06:40:51;;;;;;;13.48;5.70;;;;;;;20.11;54.21;94203.00;5103108;28;20032;-81
2022/06/17 06:43:18;;;;;;;11.60;6.60;;;;;;;20.28;53.81;94209.03;5103275;28;20027;-72
2022/06/17 06:45:47;;;;;;;9.77;6.63;;;;;;;20.44;53.70;94204.22;5101874;28;20062;-73
2022/06/17 06:48:15;;;;;;;14.70;6.47;;;;;;;20.55;52.42;94197.00;5102812;28;20315;-73
2022/06/17 06:50:42;;;;;;;12.23;6.72;;;;;;;20.53;52.57;94209.34;5102778;28;20317;-74
2022/06/17 06:53:08;;;;;;;16.10;6.47;;;;;;;20.62;52.84;94210.66;5103192;28;20016;-71
2022/06/17 06:55:34;;;;;;;10.77;6.72;;;;;;;20.72;52.39;94203.03;5102576;28;20378;-72
2022/06/17 06:58:14;;;;;;;11.80;6.00;;;;;;;20.72;51.89;94201.13;5102716;28;20245;-72
2022/06/17 07:00:46;;;;;;;10.57;5.47;;;;;;;20.62;51.98;94213.38;5102657;28;20072;-71
2022/06/17 07:03:12;;;;;;;22.08;6.28;;;;;;;20.39;53.04;94210.75;5102751;28;20043;-73
2022/06/17 07:05:41;;;;;;;15.88;5.70;;;;;;;20.38;52.87;94198.34;5102852;28;20024;-73
2022/06/17 07:08:09;;;;;;;17.55;6.28;;;;;;;20.41;52.71;94200.31;5102780;28;20330;-72
2022/06/17 07:10:35;;;;;;;18.83;8.10;;;;;;;20.38;53.65;94202.97;5102714;28;20195;-86
2022/06/17 07:13:01;;;;;;;16.63;6.10;;;;;;;20.39;53.54;94202.63;5102778;28;20057;-86
2022/06/17 07:15:28;;;;;;;15.45;6.13;;;;;;;20.48;53.96;94205.03;5102644;28;20239;-76
2022/06/17 07:18:03;;;;;;;17.17;6.50;;;;;;;20.54;55.10;94214.41;5102779;28;20244;-76
2022/06/17 07:20:37;;;;;;;13.95;6.05;;;;;;;20.51;53.76;94198.09;5102641;28;20031;-75
2022/06/17 07:23:07;;;;;;;15.15;6.15;;;;;;;20.52;53.39;94205.09;5102555;28;20218;-76
2022/06/17 07:25:34;;;;;;;11.35;5.45;;;;;;;20.54;53.10;94191.97;5102677;28;20311;-76
2022/06/17 07:28:00;;;;;;;9.27;5.57;;;;;;;20.61;53.70;94197.47;5102656;28;20034;-75
2022/06/17 07:30:27;;;;;;;10.32;6.47;;;;;;;20.71;53.38;94196.06;5102344;28;20024;-76
2022/06/17 07:32:53;;;;;;;10.40;6.70;;;;;;;20.84;52.62;94186.53;5102518;28;20070;-76
2022/06/17 07:35:19;;;;;;;14.07;6.30;;;;;;;20.84;52.41;94194.66;5102408;28;20305;-76
2022/06/17 07:40:30;;;;;;;12.30;6.85;;;;;;;20.89;52.25;94191.63;5102396;28;20073;-75
2022/06/17 07:42:57;;;;;;;15.00;7.10;;;;;;;20.86;52.87;94184.22;5102251;28;20046;-75
2022/06/17 07:45:24;;;;;;;13.10;6.97;;;;;;;20.93;52.67;94187.03;5102162;28;20358;-75
2022/06/17 07:47:51;;;;;;;11.63;6.72;;;;;;;20.97;52.56;94181.66;5102390;28;20043;-77
2022/06/17 07:50:21;;;;;;;13.52;6.90;;;;;;;20.94;53.20;94185.84;5101154;28;20034;-75
2022/06/17 07:52:47;;;;;;;15.35;8.77;;;;;;;20.79;52.62;94181.44;5084167;28;20035;-77
2022/06/17 07:55:14;;;;;;;11.77;7.43;;;;;;;20.76;53.12;94182.16;5102000;28;20032;-75
2022/06/17 07:57:40;;;;;;;13.02;7.20;;;;;;;20.81;53.90;94179.16;5104172;28;20028;-76
2022/06/17 08:00:07;;;;;;;12.85;7.72;;;;;;;20.88;52.79;94179.22;5105998;28;20032;-79
2022/06/17 08:02:33;;;;;;;16.95;7.70;;;;;;;20.97;52.08;94178.94;5105821;28;20024;-78
2022/06/17 08:04:58;;;;;;;15.20;7.82;;;;;;;20.95;52.53;94173.88;5105758;28;20027;-77
2022/06/17 08:07:24;;;;;;;13.73;7.10;;;;;;;21.07;52.83;94172.84;5105651;28;20051;-78
2022/06/17 08:09:49;;;;;;;18.77;7.70;;;;;;;21.19;52.84;94177.22;5105661;28;20032;-77
2022/06/17 08:12:14;;;;;;;13.82;8.50;;;;;;;21.23;52.30;94178.03;5105621;28;20097;-78
2022/06/17 08:14:43;;;;;;;15.02;8.13;;;;;;;21.25;52.51;94181.16;5105776;28;20027;-78
2022/06/17 08:17:14;;;;;;;17.08;7.60;;;;;;;21.32;52.49;94172.31;5105695;28;20100;-80
2022/06/17 08:19:41;;;;;;;14.70;8.02;;;;;;;21.40;52.20;94174.69;5105385;28;20102;-78
2022/06/17 08:22:07;;;;;;;18.77;8.57;;;;;;;21.51;52.35;94171.31;5105441;28;20031;-79
2022/06/17 08:24:33;;;;;;;19.80;9.75;;;;;;;21.67;51.30;94162.94;5105442;28;20031;-79
2022/06/17 08:26:59;;;;;;;19.05;8.38;;;;;;;21.73;51.56;94170.34;5105439;28;20272;-79
2022/06/17 08:29:26;;;;;;;15.45;7.53;;;;;;;21.83;51.20;94171.56;5105294;28;20043;-77
2022/06/17 08:31:52;;;;;;;19.65;7.32;;;;;;;21.87;50.97;94160.75;5105223;28;20024;-78
2022/06/17 08:34:17;;;;;;;13.73;7.55;;;;;;;21.97;50.64;94160.81;5105054;28;20050;-80
2022/06/17 08:36:43;;;;;;;12.75;6.85;;;;;;;22.00;50.81;94160.06;5105184;28;20065;-78
2022/06/17 08:39:10;;;;;;;16.67;7.10;;;;;;;22.08;51.24;94160.88;5105311;28;20035;-77
2022/06/17 08:42:12;;;;;;;18.92;7.80;;;;;;;22.23;50.35;94157.13;5105221;28;20030;-78
2022/06/17 08:44:52;;;;;;;15.90;8.40;;;;;;;22.19;49.61;94158.25;5091578;28;20068;-76
2022/06/17 08:47:40;;;;;;;14.68;6.82;;;;;;;22.36;49.17;94159.50;5105018;28;20016;-77
2022/06/17 08:50:21;;;;;;;15.13;7.53;;;;;;;22.42;49.45;94152.56;5105059;28;20065;-77
2022/06/17 08:52:55;;;;;;;16.60;7.53;;;;;;;22.52;50.17;94148.34;5104882;28;20024;-77
2022/06/17 08:55:47;;;;;;;19.77;8.10;;;;;;;22.67;49.08;94151.88;5104697;28;20039;-78
2022/06/17 08:58:30;;;;;;;16.70;7.43;;;;;;;22.75;48.83;94156.94;5104688;28;20044;-78
2022/06/17 09:01:04;;;;;;;;;;;;;;;22.76;48.97;94150.34;5104859;28;20035;-76
2022/06/17 09:03:45;;;;;;;19.85;6.90;;;;;;;22.83;48.61;94149.59;5104648;28;19908;-77
2022/06/17 09:06:34;;;;;;;19.50;7.65;;;;;;;22.79;48.21;94143.38;5103516;28;20023;-76
2022/06/17 09:09:16;;;;;;;10.32;7.70;;;;;;;22.99;47.98;94136.44;5103482;28;20038;-78
2022/06/17 09:11:50;;;;;;;15.75;7.80;;;;;;;23.13;48.06;94143.88;5104370;28;20286;-77
2022/06/17 09:14:38;;;;;;;13.43;7.18;;;;;;;23.16;48.06;94145.03;5104180;28;20036;-77
2022/06/17 09:17:26;;;;;;;17.05;6.40;;;;;;;23.14;47.63;94150.06;5079096;28;20061;-77
2022/06/17 09:19:58;;;;;;;11.63;6.20;;;;;;;23.26;46.77;94149.69;5104057;28;20055;-77
2022/06/17 09:22:28;;;;;;;;;;;;;;;23.26;46.95;94148.94;5104570;28;20043;-77
2022/06/17 09:24:56;;;;;;;12.82;6.07;;;;;;;23.34;46.99;94143.09;5104179;28;19912;-77
2022/06/17 09:27:30;;;;;;;11.55;6.63;;;;;;;23.53;43.31;94144.69;5103682;28;20028;-77
2022/06/17 09:29:58;;;;;;;17.00;6.13;;;;;;;23.46;43.93;94147.38;5103935;28;20230;-77
2022/06/17 09:32:36;;;;;;;9.57;6.07;;;;;;;23.53;45.27;94143.88;5104054;28;20024;-77
2022/06/17 09:35:12;;;;;;;15.30;6.07;;;;;;;23.60;44.29;94143.91;5104048;28;20165;-77
2022/06/17 09:37:43;;;;;;;12.40;5.68;;;;;;;23.70;43.72;94137.66;5104203;28;20019;-77
2022/06/17 09:40:18;;;;;;;16.07;6.20;;;;;;;23.75;44.25;94141.94;5086184;28;20069;-78
2022/06/17 09:42:57;;;;;;;12.65;5.30;;;;;;;23.83;43.99;94136.16;5103890;28;20035;-77
2022/06/17 09:45:30;;;;;;;19.67;7.45;;;;;;;23.94;45.33;94138.06;5103624;28;20047;-77
2022/06/17 09:48:04;;;;;;;14.57;6.75;;;;;;;24.08;45.44;94135.31;5103855;28;20024;-77
2022/06/17 09:50:43;;;;;;;12.95;6.47;;;;;;;24.20;42.86;94134.09;5103762;28;20203;-77
2022/06/17 09:53:28;;;;;;;10.63;5.80;;;;;;;24.25;43.52;94130.22;5103864;28;20016;-76
2022/06/17 09:55:57;;;;;;;10.05;5.82;;;;;;;24.37;44.99;94138.72;5103727;28;20020;-76
2022/06/17 09:58:34;;;;;;;9.63;4.85;;;;;;;24.47;42.09;94141.81;5103699;28;20300;-76
2022/06/17 10:01:00;;;;;;;7.82;4.40;;;;;;;24.50;39.77;94136.38;5103527;28;20035;-76
2022/06/17 10:03:34;;;;;;;7.75;3.58;;;;;;;24.57;34.88;94149.97;5103698;28;20054;-76
2022/06/17 10:06:03;;;;;;;5.97;2.92;;;;;;;24.53;32.52;94130.16;5085263;28;20028;-76
2022/06/17 10:08:38;;;;;;;7.82;3.38;;;;;;;24.52;33.06;94136.75;5103576;28;20028;-76
2022/06/17 10:11:25;;;;;;;9.05;4.03;;;;;;;24.68;35.25;94139.03;5103398;28;20036;-76
2022/06/17 10:14:03;;;;;;;14.23;4.18;;;;;;;24.67;35.40;94128.50;5103230;28;20322;-76
2022/06/17 10:19:47;;;;;;;7.10;3.08;;;;;;;24.75;32.90;94130.81;5103056;28;20035;-76
2022/06/17 10:22:16;;;;;;;12.70;4.93;;;;;;;24.82;36.48;94127.28;5103219;28;20132;-76
2022/06/17 10:24:41;;;;;;;9.98;3.65;;;;;;;24.80;36.27;94126.91;5103158;28;20036;-76
2022/06/17 10:27:29;;;;;;;9.35;4.25;;;;;;;24.90;36.13;94125.31;5103070;28;20085;-76
2022/06/17 10:30:02;;;;;;;7.78;3.50;;;;;;;24.87;34.97;94123.34;5103018;28;20024;-76
2022/06/17 10:32:31;;;;;;;5.57;3.67;;;;;;;24.97;34.64;94117.88;5102767;28;20066;-75
2022/06/17 10:35:01;;;;;;;10.10;3.35;;;;;;;24.99;34.00;94129.16;5102729;28;20031;-76
2022/06/17 10:37:28;;;;;;;7.28;3.47;;;;;;;25.05;34.17;94131.44;5102766;28;20054;-76
2022/06/17 10:39:55;;;;;;;8.77;2.97;;;;;;;25.15;32.22;94119.69;5102784;28;20333;-76
2022/06/17 10:42:23;;;;;;;7.00;3.65;;;;;;;25.24;30.93;94128.25;5102973;28;20020;-75
2022/06/17 10:44:52;;;;;;;5.00;3.00;;;;;;;25.24;30.13;94122.78;5102650;28;20354;-76
2022/06/17 10:47:36;;;;;;;4.88;2.88;;;;;;;25.19;31.26;94120.44;5102981;28;20051;-76
2022/06/17 10:50:23;;;;;;;7.18;3.38;;;;;;;25.40;31.90;94125.78;5102772;28;20248;-75
2022/06/17 10:52:57;;;;;;;4.38;2.70;;;;;;;25.47;30.57;94124.16;5102589;28;20020;-76
2022/06/17 10:55:46;;;;;;;7.35;3.10;;;;;;;25.41;28.87;94116.41;5102907;28;20240;-76
2022/06/17 10:58:21;;;;;;;7.93;2.65;;;;;;;25.52;28.67;94121.00;5102817;28;20028;-76
2022/06/17 11:00:59;;;;;;;4.88;2.58;;;;;;;25.53;29.59;94128.03;5102754;28;20028;-76
2022/06/17 11:03:29;;;;;;;5.25;2.40;;;;;;;25.65;28.86;94122.06;5102576;28;20043;-76
2022/06/17 11:05:59;;;;;;;4.07;2.83;;;;;;;25.77;28.01;94120.78;5102671;28;20221;-75
2022/06/17 11:08:31;;;;;;;5.80;3.63;;;;;;;25.92;30.69;94133.16;5102528;28;20100;-76
2022/06/17 11:12:02;;;;;;;8.18;3.50;;;;;;;26.07;31.52;94130.28;5102683;28;20103;-77
2022/06/17 11:13:45;;;;;;;5.28;3.58;;;;;;;26.13;29.73;94123.19;5102479;28;20039;-76
2022/06/17 11:16:17;;;;;;;9.10;3.75;;;;;;;26.12;31.04;94114.22;5102875;28;20039;-76
2022/06/17 11:18:48;;;;;;;4.95;3.33;;;;;;;26.20;32.27;94123.13;5102797;28;20020;-76
2022/06/17 11:21:23;;;;;;;13.20;3.95;;;;;;;26.30;33.59;94116.00;5102772;28;20027;-76
2022/06/17 11:23:52;;;;;;;8.00;3.50;;;;;;;26.50;32.74;94113.41;5102546;28;20039;-76
2022/06/17 11:26:30;;;;;;;6.80;3.80;;;;;;;26.58;32.41;94112.16;5102341;28;20318;-76
2022/06/17 11:28:59;;;;;;;10.35;4.60;;;;;;;26.65;34.71;94111.31;5102605;28;20031;-76
2022/06/17 11:31:24;;;;;;;9.68;4.55;;;;;;;26.72;34.61;94105.75;5102556;28;20081;-76
2022/06/17 11:33:53;;;;;;;9.15;4.57;;;;;;;26.74;35.31;94104.16;5106362;28;20036;-76
2022/06/17 11:36:33;;;;;;;8.10;4.43;;;;;;;26.83;34.02;94106.38;5106402;28;20031;-76
2022/06/17 11:39:24;;;;;;;9.45;4.22;;;;;;;26.94;33.70;94101.53;5106214;28;20020;-76
2022/06/17 11:41:50;;;;;;;9.10;5.20;;;;;;;26.85;36.49;94097.75;5106280;28;20024;-76
2022/06/17 11:44:17;;;;;;;8.35;5.15;;;;;;;26.63;36.99;94102.75;5105932;28;20146;-76
2022/06/17 11:46:52;;;;;;;11.93;5.20;;;;;;;26.41;37.49;94100.25;5106309;28;20024;-75
2022/06/17 11:49:20;;;;;;;12.52;6.38;;;;;;;26.32;37.69;94106.22;5105964;28;20326;-75
2022/06/17 11:51:48;;;;;;;10.27;4.82;;;;;;;26.21;38.38;94103.56;5105980;28;20042;-77